sensor_id;sensor_type;location;lat;lon;timestamp;temperature;humidity
67750;DHT22;54550;48.838;8.828;2022-07-22T00:01:00;19.00;99.90
67750;DHT22;54550;48.838;8.828;2022-07-22T00:03:26;18.90;99.90
67750;DHT22;54550;48.838;8.828;2022-07-22T00:05:52;18.80;99.90
67750;DHT22;54550;48.838;8.828;2022-07-22T00:08:17;18.60;99.90
67750;DHT22;54550;48.838;8.828;2022-07-22T00:10:43;18.30;99.90
67750;DHT22;54550;48.838;8.828;2022-07-22T00:13:09;18.10;99.90
67750;DHT22;54550;48.838;8.828;2022-07-22T00:15:34;17.80;99.90
67750;DHT22;54550;48.838;8.828;2022-07-22T00:18:00;17.80;99.90
67750;DHT22;54550;48.838;8.828;2022-07-22T00:20:25;17.60;99.90
67750;DHT22;54550;48.838;8.828;2022-07-22T00:22:51;17.50;99.90
67750;DHT22;54550;48.838;8.828;2022-07-22T00:25:17;17.40;99.90
67750;DHT22;54550;48.838;8.828;2022-07-22T00:27:42;17.30;99.90
67750;DHT22;54550;48.838;8.828;2022-07-22T00:30:08;17.20;99.90
67750;DHT22;54550;48.838;8.828;2022-07-22T00:32:34;17.20;99.90
67750;DHT22;54550;48.838;8.828;2022-07-22T00:34:59;17.10;99.90
67750;DHT22;54550;48.838;8.828;2022-07-22T00:37:25;17.10;99.90
67750;DHT22;54550;48.838;8.828;2022-07-22T00:39:51;16.90;99.90
67750;DHT22;54550;48.838;8.828;2022-07-22T00:42:17;16.90;99.90
67750;DHT22;54550;48.838;8.828;2022-07-22T00:44:43;16.80;99.90
67750;DHT22;54550;48.838;8.828;2022-07-22T00:47:08;16.70;99.90
67750;DHT22;54550;48.838;8.828;2022-07-22T00:49:34;16.60;99.90
67750;DHT22;54550;48.838;8.828;2022-07-22T00:52:00;16.60;99.90
67750;DHT22;54550;48.838;8.828;2022-07-22T00:54:26;16.50;99.90
67750;DHT22;54550;48.838;8.828;2022-07-22T00:56:51;16.40;99.90
67750;DHT22;54550;48.838;8.828;2022-07-22T00:59:17;16.40;99.90
67750;DHT22;54550;48.838;8.828;2022-07-22T01:01:42;16.50;99.90
67750;DHT22;54550;48.838;8.828;2022-07-22T01:04:08;16.50;99.90
67750;DHT22;54550;48.838;8.828;2022-07-22T01:06:34;16.50;99.90
67750;DHT22;54550;48.838;8.828;2022-07-22T01:08:59;16.60;99.90
67750;DHT22;54550;48.838;8.828;2022-07-22T01:11:25;16.70;99.90
67750;DHT22;54550;48.838;8.828;2022-07-22T01:13:52;16.60;99.90
67750;DHT22;54550;48.838;8.828;2022-07-22T01:16:18;16.50;99.90
67750;DHT22;54550;48.838;8.828;2022-07-22T01:18:45;16.40;99.90
67750;DHT22;54550;48.838;8.828;2022-07-22T01:21:12;16.40;99.90
67750;DHT22;54550;48.838;8.828;2022-07-22T01:23:38;16.30;99.90
67750;DHT22;54550;48.838;8.828;2022-07-22T01:26:04;16.30;99.90
67750;DHT22;54550;48.838;8.828;2022-07-22T01:28:31;16.20;99.90
67750;DHT22;54550;48.838;8.828;2022-07-22T01:30:56;16.20;99.90
67750;DHT22;54550;48.838;8.828;2022-07-22T01:33:23;16.30;99.90
67750;DHT22;54550;48.838;8.828;2022-07-22T01:35:49;16.80;99.90
67750;DHT22;54550;48.838;8.828;2022-07-22T01:38:15;17.10;99.90
67750;DHT22;54550;48.838;8.828;2022-07-22T01:40:42;17.40;99.90
67750;DHT22;54550;48.838;8.828;2022-07-22T01:43:08;17.50;99.90
67750;DHT22;54550;48.838;8.828;2022-07-22T01:45:34;17.50;99.90
67750;DHT22;54550;48.838;8.828;2022-07-22T01:48:00;17.50;99.90
67750;DHT22;54550;48.838;8.828;2022-07-22T01:50:26;17.60;99.90
67750;DHT22;54550;48.838;8.828;2022-07-22T01:52:52;17.60;99.90
67750;DHT22;54550;48.838;8.828;2022-07-22T01:55:17;17.50;99.90
67750;DHT22;54550;48.838;8.828;2022-07-22T01:57:43;17.50;99.90
67750;DHT22;54550;48.838;8.828;2022-07-22T02:00:09;17.30;99.90
67750;DHT22;54550;48.838;8.828;2022-07-22T02:02:35;17.30;99.90
67750;DHT22;54550;48.838;8.828;2022-07-22T02:05:02;17.20;99.90
67750;DHT22;54550;48.838;8.828;2022-07-22T02:07:29;17.10;99.90
67750;DHT22;54550;48.838;8.828;2022-07-22T02:09:54;17.00;99.90
67750;DHT22;54550;48.838;8.828;2022-07-22T02:12:20;16.90;99.90
67750;DHT22;54550;48.838;8.828;2022-07-22T02:14:46;16.80;99.90
67750;DHT22;54550;48.838;8.828;2022-07-22T02:17:12;16.70;99.90
67750;DHT22;54550;48.838;8.828;2022-07-22T02:19:38;16.50;99.90
67750;DHT22;54550;48.838;8.828;2022-07-22T02:22:03;16.40;99.90
67750;DHT22;54550;48.838;8.828;2022-07-22T02:24:29;16.40;99.90
67750;DHT22;54550;48.838;8.828;2022-07-22T02:26:54;16.40;99.90
67750;DHT22;54550;48.838;8.828;2022-07-22T02:29:20;16.50;99.90
67750;DHT22;54550;48.838;8.828;2022-07-22T02:31:45;16.60;99.90
67750;DHT22;54550;48.838;8.828;2022-07-22T02:34:11;16.60;99.90
67750;DHT22;54550;48.838;8.828;2022-07-22T02:36:37;16.40;99.90
67750;DHT22;54550;48.838;8.828;2022-07-22T02:39:03;16.40;99.90
67750;DHT22;54550;48.838;8.828;2022-07-22T02:41:29;16.40;99.90
67750;DHT22;54550;48.838;8.828;2022-07-22T02:43:54;16.30;99.90
67750;DHT22;54550;48.838;8.828;2022-07-22T02:46:24;16.20;99.90
67750;DHT22;54550;48.838;8.828;2022-07-22T02:48:50;16.20;99.90
67750;DHT22;54550;48.838;8.828;2022-07-22T02:51:16;16.00;99.90
67750;DHT22;54550;48.838;8.828;2022-07-22T02:53:42;15.90;99.90
67750;DHT22;54550;48.838;8.828;2022-07-22T02:56:07;15.70;99.90
67750;DHT22;54550;48.838;8.828;2022-07-22T02:58:33;15.70;99.90
67750;DHT22;54550;48.838;8.828;2022-07-22T03:00:59;15.80;99.90
67750;DHT22;54550;48.838;8.828;2022-07-22T03:03:24;15.90;99.90
67750;DHT22;54550;48.838;8.828;2022-07-22T03:05:50;15.90;99.90
67750;DHT22;54550;48.838;8.828;2022-07-22T03:08:17;15.90;99.90
67750;DHT22;54550;48.838;8.828;2022-07-22T03:10:45;15.70;99.90
67750;DHT22;54550;48.838;8.828;2022-07-22T03:13:11;15.60;99.90
67750;DHT22;54550;48.838;8.828;2022-07-22T03:15:36;15.50;99.90
67750;DHT22;54550;48.838;8.828;2022-07-22T03:18:02;15.40;99.90
67750;DHT22;54550;48.838;8.828;2022-07-22T03:20:29;15.40;99.90
67750;DHT22;54550;48.838;8.828;2022-07-22T03:22:55;15.30;99.90
67750;DHT22;54550;48.838;8.828;2022-07-22T03:25:20;15.50;99.90
67750;DHT22;54550;48.838;8.828;2022-07-22T03:27:46;15.60;99.90
67750;DHT22;54550;48.838;8.828;2022-07-22T03:30:12;15.50;99.90
67750;DHT22;54550;48.838;8.828;2022-07-22T03:32:37;15.40;99.90
67750;DHT22;54550;48.838;8.828;2022-07-22T03:35:03;15.40;99.90
67750;DHT22;54550;48.838;8.828;2022-07-22T03:37:29;15.30;99.90
67750;DHT22;54550;48.838;8.828;2022-07-22T03:39:54;15.40;99.90
67750;DHT22;54550;48.838;8.828;2022-07-22T03:42:20;15.50;99.90
67750;DHT22;54550;48.838;8.828;2022-07-22T03:44:45;15.60;99.90
67750;DHT22;54550;48.838;8.828;2022-07-22T03:47:12;15.50;99.90
67750;DHT22;54550;48.838;8.828;2022-07-22T03:49:38;15.40;99.90
67750;DHT22;54550;48.838;8.828;2022-07-22T03:52:04;15.30;99.90
67750;DHT22;54550;48.838;8.828;2022-07-22T03:54:29;15.20;99.90
67750;DHT22;54550;48.838;8.828;2022-07-22T03:56:55;15.20;99.90
67750;DHT22;54550;48.838;8.828;2022-07-22T03:59:22;15.20;99.90
67750;DHT22;54550;48.838;8.828;2022-07-22T04:01:47;15.10;99.90
67750;DHT22;54550;48.838;8.828;2022-07-22T04:04:13;15.20;99.90
67750;DHT22;54550;48.838;8.828;2022-07-22T04:06:38;15.50;99.90
67750;DHT22;54550;48.838;8.828;2022-07-22T04:09:04;15.80;99.90
67750;DHT22;54550;48.838;8.828;2022-07-22T04:11:29;16.10;99.90
67750;DHT22;54550;48.838;8.828;2022-07-22T04:13:55;16.50;99.90
67750;DHT22;54550;48.838;8.828;2022-07-22T04:16:20;16.80;99.90
67750;DHT22;54550;48.838;8.828;2022-07-22T04:18:46;16.70;99.90
67750;DHT22;54550;48.838;8.828;2022-07-22T04:21:11;16.60;99.90
67750;DHT22;54550;48.838;8.828;2022-07-22T04:23:37;16.50;99.90
67750;DHT22;54550;48.838;8.828;2022-07-22T04:26:05;16.50;99.90
67750;DHT22;54550;48.838;8.828;2022-07-22T04:28:33;16.40;99.90
67750;DHT22;54550;48.838;8.828;2022-07-22T04:30:59;16.40;99.90
67750;DHT22;54550;48.838;8.828;2022-07-22T04:33:25;16.50;99.90
67750;DHT22;54550;48.838;8.828;2022-07-22T04:35:50;16.50;99.90
67750;DHT22;54550;48.838;8.828;2022-07-22T04:38:16;16.50;99.90
67750;DHT22;54550;48.838;8.828;2022-07-22T04:40:43;16.70;99.90
67750;DHT22;54550;48.838;8.828;2022-07-22T04:43:08;17.40;99.90
67750;DHT22;54550;48.838;8.828;2022-07-22T04:45:34;18.60;99.90
67750;DHT22;54550;48.838;8.828;2022-07-22T04:47:59;19.30;99.90
67750;DHT22;54550;48.838;8.828;2022-07-22T04:50:25;20.00;99.90
67750;DHT22;54550;48.838;8.828;2022-07-22T04:52:50;20.40;99.90
67750;DHT22;54550;48.838;8.828;2022-07-22T04:55:16;20.60;99.90
67750;DHT22;54550;48.838;8.828;2022-07-22T04:57:41;20.70;99.90
67750;DHT22;54550;48.838;8.828;2022-07-22T05:00:07;21.10;99.90
67750;DHT22;54550;48.838;8.828;2022-07-22T05:02:33;21.50;99.90
67750;DHT22;54550;48.838;8.828;2022-07-22T05:04:58;21.80;99.90
67750;DHT22;54550;48.838;8.828;2022-07-22T05:07:24;22.20;99.90
67750;DHT22;54550;48.838;8.828;2022-07-22T05:09:49;22.00;99.90
67750;DHT22;54550;48.838;8.828;2022-07-22T05:12:16;21.90;99.90
67750;DHT22;54550;48.838;8.828;2022-07-22T05:14:42;22.30;99.90
67750;DHT22;54550;48.838;8.828;2022-07-22T05:17:11;22.80;99.90
67750;DHT22;54550;48.838;8.828;2022-07-22T05:19:38;23.20;99.90
67750;DHT22;54550;48.838;8.828;2022-07-22T05:22:08;23.30;99.90
67750;DHT22;54550;48.838;8.828;2022-07-22T05:24:36;23.40;99.90
67750;DHT22;54550;48.838;8.828;2022-07-22T05:27:11;23.30;99.90
67750;DHT22;54550;48.838;8.828;2022-07-22T05:29:37;23.50;99.90
67750;DHT22;54550;48.838;8.828;2022-07-22T05:32:03;23.00;99.90
67750;DHT22;54550;48.838;8.828;2022-07-22T05:34:28;23.30;99.90
67750;DHT22;54550;48.838;8.828;2022-07-22T05:36:54;23.20;99.90
67750;DHT22;54550;48.838;8.828;2022-07-22T05:39:19;23.80;99.90
67750;DHT22;54550;48.838;8.828;2022-07-22T05:41:45;24.10;99.90
67750;DHT22;54550;48.838;8.828;2022-07-22T05:44:10;23.90;99.90
67750;DHT22;54550;48.838;8.828;2022-07-22T05:46:36;24.20;99.90
67750;DHT22;54550;48.838;8.828;2022-07-22T05:49:02;23.70;99.90
67750;DHT22;54550;48.838;8.828;2022-07-22T05:51:27;23.60;99.90
67750;DHT22;54550;48.838;8.828;2022-07-22T05:53:53;23.30;99.90
67750;DHT22;54550;48.838;8.828;2022-07-22T05:56:19;23.30;99.90
67750;DHT22;54550;48.838;8.828;2022-07-22T05:58:44;22.90;99.90
67750;DHT22;54550;48.838;8.828;2022-07-22T06:01:10;22.90;99.90
67750;DHT22;54550;48.838;8.828;2022-07-22T06:03:36;23.00;99.90
67750;DHT22;54550;48.838;8.828;2022-07-22T06:06:02;22.60;99.90
67750;DHT22;54550;48.838;8.828;2022-07-22T06:08:30;22.90;99.90
67750;DHT22;54550;48.838;8.828;2022-07-22T06:10:57;22.80;99.90
67750;DHT22;54550;48.838;8.828;2022-07-22T06:13:23;22.80;99.90
67750;DHT22;54550;48.838;8.828;2022-07-22T06:15:48;22.90;99.90
67750;DHT22;54550;48.838;8.828;2022-07-22T06:18:14;23.20;99.90
67750;DHT22;54550;48.838;8.828;2022-07-22T06:20:40;23.20;99.90
67750;DHT22;54550;48.838;8.828;2022-07-22T06:23:06;23.00;99.90
67750;DHT22;54550;48.838;8.828;2022-07-22T06:25:31;22.90;99.90
67750;DHT22;54550;48.838;8.828;2022-07-22T06:27:57;22.40;99.90
67750;DHT22;54550;48.838;8.828;2022-07-22T06:30:22;22.80;99.90
67750;DHT22;54550;48.838;8.828;2022-07-22T06:32:48;22.80;99.90
67750;DHT22;54550;48.838;8.828;2022-07-22T06:35:14;23.00;99.90
67750;DHT22;54550;48.838;8.828;2022-07-22T06:37:39;23.80;99.90
67750;DHT22;54550;48.838;8.828;2022-07-22T06:40:05;23.90;99.90
67750;DHT22;54550;48.838;8.828;2022-07-22T06:42:31;24.10;99.90
67750;DHT22;54550;48.838;8.828;2022-07-22T06:44:56;25.10;99.90
67750;DHT22;54550;48.838;8.828;2022-07-22T06:47:22;25.30;99.90
67750;DHT22;54550;48.838;8.828;2022-07-22T06:49:47;24.60;99.90
67750;DHT22;54550;48.838;8.828;2022-07-22T06:52:13;24.40;99.90
67750;DHT22;54550;48.838;8.828;2022-07-22T06:54:39;24.10;99.90
67750;DHT22;54550;48.838;8.828;2022-07-22T06:57:04;24.90;99.90
67750;DHT22;54550;48.838;8.828;2022-07-22T06:59:30;24.50;99.90
67750;DHT22;54550;48.838;8.828;2022-07-22T07:01:55;24.90;99.90
67750;DHT22;54550;48.838;8.828;2022-07-22T07:04:21;24.90;99.90
67750;DHT22;54550;48.838;8.828;2022-07-22T07:06:46;24.80;99.90
67750;DHT22;54550;48.838;8.828;2022-07-22T07:09:12;25.30;99.90
67750;DHT22;54550;48.838;8.828;2022-07-22T07:11:37;26.10;99.80
67750;DHT22;54550;48.838;8.828;2022-07-22T07:14:03;26.50;98.90
67750;DHT22;54550;48.838;8.828;2022-07-22T07:16:29;26.60;98.40
67750;DHT22;54550;48.838;8.828;2022-07-22T07:18:55;26.60;98.00
67750;DHT22;54550;48.838;8.828;2022-07-22T07:21:21;27.20;97.40
67750;DHT22;54550;48.838;8.828;2022-07-22T07:23:46;27.70;96.40
67750;DHT22;54550;48.838;8.828;2022-07-22T07:26:12;27.70;96.10
67750;DHT22;54550;48.838;8.828;2022-07-22T07:28:38;27.80;96.00
67750;DHT22;54550;48.838;8.828;2022-07-22T07:31:04;28.20;94.70
67750;DHT22;54550;48.838;8.828;2022-07-22T07:33:30;27.70;95.00
67750;DHT22;54550;48.838;8.828;2022-07-22T07:35:55;27.80;94.80
67750;DHT22;54550;48.838;8.828;2022-07-22T07:38:21;27.00;95.60
67750;DHT22;54550;48.838;8.828;2022-07-22T07:40:46;26.90;95.60
67750;DHT22;54550;48.838;8.828;2022-07-22T07:43:12;26.90;95.80
67750;DHT22;54550;48.838;8.828;2022-07-22T07:45:38;26.60;96.30
67750;DHT22;54550;48.838;8.828;2022-07-22T07:48:04;27.10;96.70
67750;DHT22;54550;48.838;8.828;2022-07-22T07:50:30;27.80;94.80
67750;DHT22;54550;48.838;8.828;2022-07-22T07:52:57;27.70;94.70
67750;DHT22;54550;48.838;8.828;2022-07-22T07:55:23;27.50;95.20
67750;DHT22;54550;48.838;8.828;2022-07-22T07:57:49;27.90;94.30
67750;DHT22;54550;48.838;8.828;2022-07-22T08:00:17;28.40;93.60
67750;DHT22;54550;48.838;8.828;2022-07-22T08:02:43;27.90;93.80
67750;DHT22;54550;48.838;8.828;2022-07-22T08:05:10;27.50;94.10
67750;DHT22;54550;48.838;8.828;2022-07-22T08:07:36;27.60;94.10
67750;DHT22;54550;48.838;8.828;2022-07-22T08:10:04;27.60;93.90
67750;DHT22;54550;48.838;8.828;2022-07-22T08:12:29;28.00;94.50
67750;DHT22;54550;48.838;8.828;2022-07-22T08:14:55;28.60;93.10
67750;DHT22;54550;48.838;8.828;2022-07-22T08:17:21;28.70;92.60
67750;DHT22;54550;48.838;8.828;2022-07-22T08:19:46;28.60;92.70
67750;DHT22;54550;48.838;8.828;2022-07-22T08:22:12;28.70;92.90
67750;DHT22;54550;48.838;8.828;2022-07-22T08:24:37;28.80;92.60
67750;DHT22;54550;48.838;8.828;2022-07-22T08:27:03;29.20;92.40
67750;DHT22;54550;48.838;8.828;2022-07-22T08:29:29;29.80;91.70
67750;DHT22;54550;48.838;8.828;2022-07-22T08:31:54;30.20;91.10
67750;DHT22;54550;48.838;8.828;2022-07-22T08:34:20;30.80;91.60
67750;DHT22;54550;48.838;8.828;2022-07-22T08:36:45;31.80;88.30
67750;DHT22;54550;48.838;8.828;2022-07-22T08:39:11;31.20;87.20
67750;DHT22;54550;48.838;8.828;2022-07-22T08:41:37;30.00;89.60
67750;DHT22;54550;48.838;8.828;2022-07-22T08:44:06;29.50;90.70
67750;DHT22;54550;48.838;8.828;2022-07-22T08:46:32;29.30;90.50
67750;DHT22;54550;48.838;8.828;2022-07-22T08:48:58;29.60;90.30
67750;DHT22;54550;48.838;8.828;2022-07-22T08:51:26;29.00;90.90
67750;DHT22;54550;48.838;8.828;2022-07-22T08:53:52;29.70;89.00
67750;DHT22;54550;48.838;8.828;2022-07-22T08:56:18;30.50;89.40
67750;DHT22;54550;48.838;8.828;2022-07-22T08:58:44;31.10;87.10
67750;DHT22;54550;48.838;8.828;2022-07-22T09:01:14;31.40;85.80
67750;DHT22;54550;48.838;8.828;2022-07-22T09:03:52;32.10;83.40
67750;DHT22;54550;48.838;8.828;2022-07-22T09:06:19;31.50;81.50
67750;DHT22;54550;48.838;8.828;2022-07-22T09:08:57;29.90;87.30
67750;DHT22;54550;48.838;8.828;2022-07-22T09:11:25;29.90;85.60
67750;DHT22;54550;48.838;8.828;2022-07-22T09:13:51;29.20;86.50
67750;DHT22;54550;48.838;8.828;2022-07-22T09:19:08;30.20;84.60
67750;DHT22;54550;48.838;8.828;2022-07-22T09:21:35;30.50;85.40
67750;DHT22;54550;48.838;8.828;2022-07-22T09:24:03;30.50;83.30
67750;DHT22;54550;48.838;8.828;2022-07-22T09:26:31;30.00;84.60
67750;DHT22;54550;48.838;8.828;2022-07-22T09:28:58;29.50;86.00
67750;DHT22;54550;48.838;8.828;2022-07-22T09:33:51;29.10;87.70
67750;DHT22;54550;48.838;8.828;2022-07-22T09:36:19;29.70;86.50
67750;DHT22;54550;48.838;8.828;2022-07-22T09:38:45;29.80;87.00
67750;DHT22;54550;48.838;8.828;2022-07-22T09:41:10;29.90;87.00
67750;DHT22;54550;48.838;8.828;2022-07-22T09:43:36;30.20;85.50
67750;DHT22;54550;48.838;8.828;2022-07-22T09:46:02;29.60;87.30
67750;DHT22;54550;48.838;8.828;2022-07-22T09:48:29;29.70;88.60
67750;DHT22;54550;48.838;8.828;2022-07-22T09:50:55;30.40;87.20
67750;DHT22;54550;48.838;8.828;2022-07-22T09:53:24;31.80;83.00
67750;DHT22;54550;48.838;8.828;2022-07-22T09:55:49;32.10;81.30
67750;DHT22;54550;48.838;8.828;2022-07-22T09:58:15;31.90;81.90
67750;DHT22;54550;48.838;8.828;2022-07-22T10:00:43;32.60;81.60
67750;DHT22;54550;48.838;8.828;2022-07-22T10:03:17;32.90;79.00
67750;DHT22;54550;48.838;8.828;2022-07-22T10:05:43;33.50;78.20
67750;DHT22;54550;48.838;8.828;2022-07-22T10:08:10;34.10;77.60
67750;DHT22;54550;48.838;8.828;2022-07-22T10:10:37;34.10;75.00
67750;DHT22;54550;48.838;8.828;2022-07-22T10:13:05;34.00;75.10
67750;DHT22;54550;48.838;8.828;2022-07-22T10:15:32;33.40;75.70
67750;DHT22;54550;48.838;8.828;2022-07-22T10:18:00;33.30;75.40
67750;DHT22;54550;48.838;8.828;2022-07-22T10:20:29;33.70;74.80
67750;DHT22;54550;48.838;8.828;2022-07-22T10:22:57;33.80;75.40
67750;DHT22;54550;48.838;8.828;2022-07-22T10:25:26;33.10;74.00
67750;DHT22;54550;48.838;8.828;2022-07-22T10:28:05;31.90;77.40
67750;DHT22;54550;48.838;8.828;2022-07-22T10:30:33;31.90;78.80
67750;DHT22;54550;48.838;8.828;2022-07-22T10:33:05;32.20;76.00
67750;DHT22;54550;48.838;8.828;2022-07-22T10:35:31;32.80;74.90
67750;DHT22;54550;48.838;8.828;2022-07-22T10:37:59;33.50;75.70
67750;DHT22;54550;48.838;8.828;2022-07-22T10:40:28;33.70;74.50
67750;DHT22;54550;48.838;8.828;2022-07-22T10:45:28;33.40;72.90
67750;DHT22;54550;48.838;8.828;2022-07-22T10:47:54;32.90;75.70
67750;DHT22;54550;48.838;8.828;2022-07-22T10:53:01;33.30;75.10
67750;DHT22;54550;48.838;8.828;2022-07-22T10:55:27;33.30;73.60
67750;DHT22;54550;48.838;8.828;2022-07-22T10:57:53;33.60;76.10
67750;DHT22;54550;48.838;8.828;2022-07-22T11:00:18;33.80;75.80
67750;DHT22;54550;48.838;8.828;2022-07-22T11:02:44;34.30;72.20
67750;DHT22;54550;48.838;8.828;2022-07-22T11:05:10;33.80;73.20
67750;DHT22;54550;48.838;8.828;2022-07-22T11:07:46;34.30;72.70
67750;DHT22;54550;48.838;8.828;2022-07-22T11:10:14;33.70;71.40
67750;DHT22;54550;48.838;8.828;2022-07-22T11:12:41;32.80;73.80
67750;DHT22;54550;48.838;8.828;2022-07-22T11:15:08;32.30;74.10
67750;DHT22;54550;48.838;8.828;2022-07-22T11:17:34;31.90;73.50
67750;DHT22;54550;48.838;8.828;2022-07-22T11:20:06;32.40;74.50
67750;DHT22;54550;48.838;8.828;2022-07-22T11:22:32;32.90;72.90
67750;DHT22;54550;48.838;8.828;2022-07-22T11:25:00;33.40;71.60
67750;DHT22;54550;48.838;8.828;2022-07-22T11:27:26;33.60;71.40
67750;DHT22;54550;48.838;8.828;2022-07-22T11:29:54;33.30;71.20
67750;DHT22;54550;48.838;8.828;2022-07-22T11:32:21;33.10;71.10
67750;DHT22;54550;48.838;8.828;2022-07-22T11:34:47;32.20;73.20
67750;DHT22;54550;48.838;8.828;2022-07-22T11:37:21;32.50;72.10
67750;DHT22;54550;48.838;8.828;2022-07-22T11:39:59;31.90;73.80
67750;DHT22;54550;48.838;8.828;2022-07-22T11:42:26;31.50;73.00
67750;DHT22;54550;48.838;8.828;2022-07-22T11:44:52;32.30;71.70
67750;DHT22;54550;48.838;8.828;2022-07-22T11:47:18;32.80;68.10
67750;DHT22;54550;48.838;8.828;2022-07-22T11:49:45;32.80;67.30
67750;DHT22;54550;48.838;8.828;2022-07-22T11:52:11;33.00;69.50
67750;DHT22;54550;48.838;8.828;2022-07-22T11:54:38;32.70;70.80
67750;DHT22;54550;48.838;8.828;2022-07-22T11:57:03;32.90;71.20
67750;DHT22;54550;48.838;8.828;2022-07-22T11:59:29;33.30;72.10
67750;DHT22;54550;48.838;8.828;2022-07-22T12:01:54;33.50;69.70
67750;DHT22;54550;48.838;8.828;2022-07-22T12:04:24;32.60;70.40
67750;DHT22;54550;48.838;8.828;2022-07-22T12:06:51;33.80;69.10
67750;DHT22;54550;48.838;8.828;2022-07-22T12:09:24;33.90;69.50
67750;DHT22;54550;48.838;8.828;2022-07-22T12:11:55;33.50;72.80
67750;DHT22;54550;48.838;8.828;2022-07-22T12:14:28;33.90;69.80
67750;DHT22;54550;48.838;8.828;2022-07-22T12:17:12;33.50;64.70
67750;DHT22;54550;48.838;8.828;2022-07-22T12:19:39;34.00;66.20
67750;DHT22;54550;48.838;8.828;2022-07-22T12:22:19;34.30;65.70
67750;DHT22;54550;48.838;8.828;2022-07-22T12:24:51;34.10;66.50
67750;DHT22;54550;48.838;8.828;2022-07-22T12:27:22;33.80;66.80
67750;DHT22;54550;48.838;8.828;2022-07-22T12:29:49;34.20;65.70
67750;DHT22;54550;48.838;8.828;2022-07-22T12:32:25;35.00;63.40
67750;DHT22;54550;48.838;8.828;2022-07-22T12:40:06;35.90;59.10
67750;DHT22;54550;48.838;8.828;2022-07-22T12:42:36;35.70;60.80
67750;DHT22;54550;48.838;8.828;2022-07-22T12:45:13;35.50;61.80
67750;DHT22;54550;48.838;8.828;2022-07-22T12:47:54;35.20;61.20
67750;DHT22;54550;48.838;8.828;2022-07-22T12:52:58;35.90;60.90
67750;DHT22;54550;48.838;8.828;2022-07-22T12:55:25;36.30;58.20
67750;DHT22;54550;48.838;8.828;2022-07-22T12:57:51;35.90;59.10
67750;DHT22;54550;48.838;8.828;2022-07-22T13:00:20;35.50;59.00
67750;DHT22;54550;48.838;8.828;2022-07-22T13:02:46;34.70;59.70
67750;DHT22;54550;48.838;8.828;2022-07-22T13:05:11;34.40;59.10
67750;DHT22;54550;48.838;8.828;2022-07-22T13:07:37;34.00;60.10
67750;DHT22;54550;48.838;8.828;2022-07-22T13:10:03;34.20;62.10
67750;DHT22;54550;48.838;8.828;2022-07-22T13:12:29;33.60;64.40
67750;DHT22;54550;48.838;8.828;2022-07-22T13:14:55;33.90;61.00
67750;DHT22;54550;48.838;8.828;2022-07-22T13:17:20;34.20;62.00
67750;DHT22;54550;48.838;8.828;2022-07-22T13:19:46;34.60;61.50
67750;DHT22;54550;48.838;8.828;2022-07-22T13:22:11;35.00;61.20
67750;DHT22;54550;48.838;8.828;2022-07-22T13:24:37;35.40;61.20
67750;DHT22;54550;48.838;8.828;2022-07-22T13:27:03;35.50;60.00
67750;DHT22;54550;48.838;8.828;2022-07-22T13:29:28;35.10;59.40
67750;DHT22;54550;48.838;8.828;2022-07-22T13:31:54;34.70;60.40
67750;DHT22;54550;48.838;8.828;2022-07-22T13:34:20;34.60;59.90
67750;DHT22;54550;48.838;8.828;2022-07-22T13:36:45;34.40;60.50
67750;DHT22;54550;48.838;8.828;2022-07-22T13:39:11;35.00;59.50
67750;DHT22;54550;48.838;8.828;2022-07-22T13:41:36;35.70;58.40
67750;DHT22;54550;48.838;8.828;2022-07-22T13:44:02;36.00;57.40
67750;DHT22;54550;48.838;8.828;2022-07-22T13:46:27;36.00;57.10
67750;DHT22;54550;48.838;8.828;2022-07-22T13:48:53;34.60;58.20
67750;DHT22;54550;48.838;8.828;2022-07-22T13:51:19;34.00;60.90
67750;DHT22;54550;48.838;8.828;2022-07-22T13:53:44;34.50;61.20
67750;DHT22;54550;48.838;8.828;2022-07-22T13:56:10;34.90;60.70
67750;DHT22;54550;48.838;8.828;2022-07-22T13:58:38;34.90;58.50
67750;DHT22;54550;48.838;8.828;2022-07-22T14:01:06;34.70;59.60
67750;DHT22;54550;48.838;8.828;2022-07-22T14:03:32;34.40;58.60
67750;DHT22;54550;48.838;8.828;2022-07-22T14:05:58;33.80;58.40
67750;DHT22;54550;48.838;8.828;2022-07-22T14:08:23;33.70;59.70
67750;DHT22;54550;48.838;8.828;2022-07-22T14:10:49;33.20;59.70
67750;DHT22;54550;48.838;8.828;2022-07-22T14:13:14;33.10;61.10
67750;DHT22;54550;48.838;8.828;2022-07-22T14:15:40;33.50;60.10
67750;DHT22;54550;48.838;8.828;2022-07-22T14:18:06;33.60;59.10
67750;DHT22;54550;48.838;8.828;2022-07-22T14:20:33;33.20;60.00
67750;DHT22;54550;48.838;8.828;2022-07-22T14:22:58;32.90;59.90
67750;DHT22;54550;48.838;8.828;2022-07-22T14:25:24;32.90;63.80
67750;DHT22;54550;48.838;8.828;2022-07-22T14:27:50;33.40;60.20
67750;DHT22;54550;48.838;8.828;2022-07-22T14:30:15;33.00;60.70
67750;DHT22;54550;48.838;8.828;2022-07-22T14:32:41;33.10;61.50
67750;DHT22;54550;48.838;8.828;2022-07-22T14:35:07;32.90;59.90
67750;DHT22;54550;48.838;8.828;2022-07-22T14:37:33;33.10;60.50
67750;DHT22;54550;48.838;8.828;2022-07-22T14:39:59;33.20;62.70
67750;DHT22;54550;48.838;8.828;2022-07-22T14:42:24;32.90;60.30
67750;DHT22;54550;48.838;8.828;2022-07-22T14:44:50;33.10;59.70
67750;DHT22;54550;48.838;8.828;2022-07-22T14:47:16;33.00;61.00
67750;DHT22;54550;48.838;8.828;2022-07-22T14:49:41;33.30;61.90
67750;DHT22;54550;48.838;8.828;2022-07-22T14:52:07;33.30;63.50
67750;DHT22;54550;48.838;8.828;2022-07-22T14:54:32;33.70;62.00
67750;DHT22;54550;48.838;8.828;2022-07-22T14:56:58;33.50;60.20
67750;DHT22;54550;48.838;8.828;2022-07-22T14:59:24;33.30;60.50
67750;DHT22;54550;48.838;8.828;2022-07-22T15:01:51;33.20;61.20
67750;DHT22;54550;48.838;8.828;2022-07-22T15:04:17;32.80;60.20
67750;DHT22;54550;48.838;8.828;2022-07-22T15:06:43;32.30;60.70
67750;DHT22;54550;48.838;8.828;2022-07-22T15:09:08;32.00;61.80
67750;DHT22;54550;48.838;8.828;2022-07-22T15:11:34;31.90;61.90
67750;DHT22;54550;48.838;8.828;2022-07-22T15:13:59;32.10;61.00
67750;DHT22;54550;48.838;8.828;2022-07-22T15:16:25;32.40;61.90
67750;DHT22;54550;48.838;8.828;2022-07-22T15:18:50;32.80;60.80
67750;DHT22;54550;48.838;8.828;2022-07-22T15:21:16;32.90;61.10
67750;DHT22;54550;48.838;8.828;2022-07-22T15:23:42;32.70;60.30
67750;DHT22;54550;48.838;8.828;2022-07-22T15:26:07;32.50;61.40
67750;DHT22;54550;48.838;8.828;2022-07-22T15:28:33;32.30;61.30
67750;DHT22;54550;48.838;8.828;2022-07-22T15:30:59;32.30;64.30
67750;DHT22;54550;48.838;8.828;2022-07-22T15:33:25;32.20;65.20
67750;DHT22;54550;48.838;8.828;2022-07-22T15:35:51;32.00;65.00
67750;DHT22;54550;48.838;8.828;2022-07-22T15:38:16;31.90;65.70
67750;DHT22;54550;48.838;8.828;2022-07-22T15:40:42;31.70;66.10
67750;DHT22;54550;48.838;8.828;2022-07-22T15:43:07;31.50;66.00